Time;durP1;ratioP1;P1;durP2;ratioP2;P2;SDS_P1;SDS_P2;PMS_P1;PMS_P2;Temp;Humidity;BMP_temperature;BMP_pressure;BME280_temperature;BME280_humidity;BME280_pressure;Samples;Min_cycle;Max_cycle;Signal;HPM_P1;HPM_P2
2024/02/08 00:00:07;;;;;;;16.45;4.85;;;6.20;99.90;;;;;;5014983;28;20501;-60
2024/02/08 00:02:34;;;;;;;17.33;4.85;;;6.20;99.90;;;;;;5015132;28;20042;-60
2024/02/08 00:05:01;;;;;;;20.23;5.30;;;6.20;99.90;;;;;;5015052;28;20053;-60
2024/02/08 00:07:28;;;;;;;21.10;5.32;;;6.20;99.90;;;;;;5015490;28;20070;-60
2024/02/08 00:09:57;;;;;;;13.52;4.95;;;6.20;99.90;;;;;;5014986;28;20038;-59
2024/02/08 00:12:25;;;;;;;16.45;5.63;;;6.20;99.90;;;;;;5014609;28;20052;-59
2024/02/08 00:14:51;;;;;;;21.55;5.63;;;6.20;99.90;;;;;;5015192;28;20128;-59
2024/02/08 00:17:20;;;;;;;20.58;6.00;;;6.30;99.90;;;;;;5015266;28;20111;-58
2024/02/08 00:19:48;;;;;;;15.35;6.07;;;6.30;99.90;;;;;;5015211;28;20132;-59
2024/02/08 00:22:15;;;;;;;18.35;6.43;;;6.30;99.90;;;;;;5014925;28;20045;-59
2024/02/08 00:24:42;;;;;;;15.82;5.88;;;6.30;99.90;;;;;;5015166;28;20371;-59
2024/02/08 00:27:08;;;;;;;18.33;5.25;;;6.30;99.90;;;;;;5015010;28;20048;-59
2024/02/08 00:29:35;;;;;;;21.42;5.15;;;6.20;99.90;;;;;;5014860;28;20042;-59
2024/02/08 00:32:02;;;;;;;17.23;5.00;;;6.20;99.90;;;;;;5015179;28;20034;-59
2024/02/08 00:34:29;;;;;;;16.27;5.18;;;6.20;99.90;;;;;;5014851;28;20042;-59
2024/02/08 00:36:56;;;;;;;14.30;5.65;;;6.10;99.90;;;;;;5014805;28;20053;-59
2024/02/08 00:39:23;;;;;;;18.00;5.22;;;6.10;99.90;;;;;;5015030;28;20061;-59
2024/02/08 00:41:50;;;;;;;25.88;6.47;;;6.10;99.90;;;;;;5014538;28;20124;-59
2024/02/08 00:44:17;;;;;;;23.02;6.38;;;6.10;99.90;;;;;;5014294;28;20041;-59
2024/02/08 00:46:43;;;;;;;15.20;6.53;;;6.10;99.90;;;;;;5014761;28;20407;-60
2024/02/08 00:49:10;;;;;;;18.67;7.68;;;6.10;99.90;;;;;;5014872;28;20180;-60
2024/02/08 00:51:37;;;;;;;23.88;8.43;;;6.10;99.90;;;;;;5014619;28;20046;-60
2024/02/08 00:54:04;;;;;;;23.45;8.85;;;6.20;99.90;;;;;;5014488;28;20092;-60
2024/02/08 00:56:31;;;;;;;20.55;8.63;;;6.20;99.90;;;;;;5014827;28;20515;-59
2024/02/08 00:58:58;;;;;;;29.77;9.32;;;6.10;99.90;;;;;;5012955;28;20501;-60
2024/02/08 01:01:24;;;;;;;21.58;8.55;;;6.10;99.90;;;;;;5014307;28;20503;-59
2024/02/08 01:03:51;;;;;;;21.85;7.95;;;6.10;99.90;;;;;;5014236;28;20499;-59
2024/02/08 01:06:18;;;;;;;25.75;8.80;;;6.10;99.90;;;;;;5014594;28;20045;-59
2024/02/08 01:08:45;;;;;;;37.10;8.05;;;6.10;99.90;;;;;;5014179;28;20041;-59
2024/02/08 01:11:12;;;;;;;26.13;7.53;;;6.10;99.90;;;;;;5014249;28;20117;-59
2024/02/08 01:13:39;;;;;;;22.10;7.90;;;6.10;99.90;;;;;;5014137;28;20072;-59
2024/02/08 01:16:06;;;;;;;20.20;7.68;;;6.10;99.90;;;;;;5014104;28;20506;-60
2024/02/08 01:18:33;;;;;;;22.48;7.65;;;6.00;99.90;;;;;;5014243;28;20053;-59
2024/02/08 01:21:00;;;;;;;26.75;7.47;;;6.00;99.90;;;;;;5014014;28;20049;-59
2024/02/08 01:23:28;;;;;;;25.88;7.97;;;6.00;99.90;;;;;;5014024;28;20499;-60
2024/02/08 01:25:55;;;;;;;22.50;7.00;;;6.00;99.90;;;;;;5013300;28;20046;-60
2024/02/08 01:28:22;;;;;;;21.50;7.50;;;6.00;99.90;;;;;;5014014;28;20117;-60
2024/02/08 01:30:49;;;;;;;19.20;6.68;;;6.10;99.90;;;;;;5013680;28;20117;-60
2024/02/08 01:33:16;;;;;;;20.52;7.43;;;6.10;99.90;;;;;;5014027;28;20061;-60
2024/02/08 01:35:43;;;;;;;27.48;7.30;;;6.10;99.90;;;;;;5013826;28;20133;-59
2024/02/08 01:38:10;;;;;;;26.17;6.82;;;6.10;99.90;;;;;;5013896;28;20038;-59
2024/02/08 01:40:40;;;;;;;16.55;7.00;;;6.10;99.90;;;;;;5013625;28;20077;-60
2024/02/08 01:43:07;;;;;;;22.02;6.75;;;6.10;99.90;;;;;;5013785;28;20074;-60
2024/02/08 01:45:34;;;;;;;26.33;9.20;;;6.10;99.90;;;;;;5013909;28;20042;-60
2024/02/08 01:48:02;;;;;;;24.98;8.07;;;6.10;99.90;;;;;;5013403;28;20038;-60
2024/02/08 01:50:30;;;;;;;20.33;7.53;;;6.10;99.90;;;;;;5013742;28;20042;-60
2024/02/08 01:52:59;;;;;;;23.95;8.13;;;6.10;99.90;;;;;;5012615;28;20050;-60
2024/02/08 01:55:26;;;;;;;21.08;7.22;;;6.10;99.90;;;;;;5013381;28;20041;-61
2024/02/08 01:57:52;;;;;;;19.13;7.55;;;6.10;99.90;;;;;;5013561;28;20430;-60
2024/02/08 02:00:19;;;;;;;25.23;7.55;;;6.10;99.90;;;;;;5013620;28;20141;-60
2024/02/08 02:02:53;;;;;;;21.90;6.68;;;6.20;99.90;;;;;;5012128;28;20056;-60
2024/02/08 02:05:21;;;;;;;22.00;6.55;;;6.20;99.90;;;;;;5013141;28;20510;-60
2024/02/08 02:07:48;;;;;;;17.48;6.13;;;6.20;99.90;;;;;;5013775;28;20100;-60
2024/02/08 02:10:15;;;;;;;20.13;6.10;;;6.30;99.90;;;;;;5013520;28;20492;-59
2024/02/08 02:12:45;;;;;;;19.65;6.10;;;6.30;99.90;;;;;;5013789;28;20124;-59
2024/02/08 02:15:12;;;;;;;19.25;5.93;;;6.30;99.90;;;;;;5012990;28;20064;-60
2024/02/08 02:17:39;;;;;;;20.33;6.20;;;6.30;99.90;;;;;;5013286;28;20049;-59
2024/02/08 02:20:06;;;;;;;16.00;5.45;;;6.30;99.90;;;;;;5013284;28;20048;-61
2024/02/08 02:22:42;;;;;;;20.85;5.90;;;6.30;99.90;;;;;;5013247;28;20042;-60
2024/02/08 02:25:10;;;;;;;19.90;6.25;;;6.30;99.90;;;;;;5013466;28;20037;-60
2024/02/08 02:27:42;;;;;;;18.50;5.90;;;6.30;99.90;;;;;;5013452;28;20128;-61
2024/02/08 02:30:15;;;;;;;22.38;5.88;;;6.30;99.90;;;;;;5013582;28;20424;-61
2024/02/08 02:32:42;;;;;;;14.63;5.00;;;6.30;99.90;;;;;;5013526;28;20045;-60
2024/02/08 02:35:09;;;;;;;17.40;5.82;;;6.30;99.90;;;;;;5012160;28;20113;-60
2024/02/08 02:37:36;;;;;;;15.90;5.57;;;6.30;99.90;;;;;;5016732;28;20392;-61
2024/02/08 02:40:03;;;;;;;15.60;5.40;;;6.30;99.90;;;;;;5016967;28;20070;-60
2024/02/08 02:42:29;;;;;;;15.38;5.10;;;6.30;99.90;;;;;;5017116;28;20133;-60
2024/02/08 02:44:56;;;;;;;14.48;5.10;;;6.30;99.90;;;;;;5017064;28;20057;-58
2024/02/08 02:47:25;;;;;;;18.02;4.97;;;6.30;99.90;;;;;;5016667;28;20411;-61
2024/02/08 02:49:55;;;;;;;21.30;5.45;;;6.30;99.90;;;;;;5016859;28;20030;-60
2024/02/08 02:52:22;;;;;;;19.48;6.00;;;6.20;99.90;;;;;;5016928;28;20434;-60
2024/02/08 02:54:48;;;;;;;17.05;4.95;;;6.20;99.90;;;;;;5016431;28;20042;-60
2024/02/08 02:57:15;;;;;;;14.02;5.00;;;6.20;99.90;;;;;;5016809;28;20479;-61
2024/02/08 02:59:42;;;;;;;16.80;5.50;;;6.20;99.90;;;;;;5014993;28;20450;-61
2024/02/08 03:02:09;;;;;;;21.35;5.05;;;6.20;99.90;;;;;;5016636;28;20042;-60
2024/02/08 03:04:35;;;;;;;15.55;5.93;;;6.20;99.90;;;;;;5016207;28;20494;-61
2024/02/08 03:07:02;;;;;;;17.65;6.03;;;6.20;99.90;;;;;;5016893;28;20040;-60
2024/02/08 03:09:31;;;;;;;20.00;5.40;;;6.20;99.90;;;;;;5016441;28;20115;-60
2024/02/08 03:11:58;;;;;;;14.68;5.78;;;6.20;99.90;;;;;;5016454;28;20124;-60
2024/02/08 03:14:25;;;;;;;19.40;6.45;;;6.20;99.90;;;;;;5016082;28;20050;-60
2024/02/08 03:16:53;;;;;;;17.35;6.80;;;6.20;99.90;;;;;;5015016;28;20124;-61
2024/02/08 03:19:21;;;;;;;14.60;5.00;;;6.20;99.90;;;;;;5016046;28;20077;-61
2024/02/08 03:21:49;;;;;;;15.48;5.68;;;6.20;99.90;;;;;;5014745;28;20411;-61
2024/02/08 03:24:19;;;;;;;18.30;5.72;;;6.20;99.90;;;;;;5015899;28;20038;-61
2024/02/08 03:26:49;;;;;;;22.63;5.10;;;6.20;99.90;;;;;;5016268;28;20476;-61
2024/02/08 03:29:17;;;;;;;16.52;5.97;;;6.30;99.90;;;;;;5016018;28;20126;-61
2024/02/08 03:31:47;;;;;;;19.30;6.18;;;6.30;99.90;;;;;;5016111;28;20389;-60
2024/02/08 03:34:16;;;;;;;16.25;5.85;;;6.30;99.90;;;;;;5015859;28;20128;-61
2024/02/08 03:36:44;;;;;;;16.98;6.15;;;6.30;99.90;;;;;;5015918;28;20046;-61
2024/02/08 03:39:13;;;;;;;16.75;5.55;;;6.30;99.90;;;;;;5015841;28;20444;-61
2024/02/08 03:41:40;;;;;;;14.82;5.70;;;6.30;99.90;;;;;;5015854;28;20100;-59
2024/02/08 03:44:07;;;;;;;19.30;6.63;;;6.20;99.90;;;;;;5015548;28;20125;-61
2024/02/08 03:46:34;;;;;;;16.67;6.68;;;6.20;99.90;;;;;;5015675;28;20070;-62
2024/02/08 03:49:03;;;;;;;21.20;6.40;;;6.20;99.90;;;;;;5015081;28;20510;-61
2024/02/08 03:51:30;;;;;;;21.95;7.30;;;6.20;99.90;;;;;;5015492;28;20391;-61
2024/02/08 03:54:00;;;;;;;20.63;7.43;;;6.20;99.90;;;;;;5014441;28;20454;-61
2024/02/08 03:56:36;;;;;;;18.42;7.30;;;6.20;99.90;;;;;;5015846;28;20049;-61
2024/02/08 03:59:11;;;;;;;15.63;6.55;;;6.20;99.90;;;;;;5015567;28;20092;-61
2024/02/08 04:01:42;;;;;;;23.27;7.53;;;6.20;99.90;;;;;;5015704;28;20165;-61
2024/02/08 04:04:15;;;;;;;22.08;8.35;;;6.20;99.90;;;;;;5014865;28;20108;-60
2024/02/08 04:07:14;;;;;;;18.10;7.38;;;6.20;99.90;;;;;;5015506;28;20467;-61
2024/02/08 04:09:48;;;;;;;21.00;7.85;;;6.20;99.90;;;;;;5015380;28;20072;-60
2024/02/08 04:53:44;;;;;;;22.80;10.18;;;6.00;99.90;;;;;;5014632;28;20041;-61
2024/02/08 04:56:10;;;;;;;19.90;10.05;;;6.00;99.90;;;;;;5014654;28;20038;-60
2024/02/08 04:58:39;;;;;;;21.30;10.20;;;6.00;99.90;;;;;;5014350;28;20061;-60
2024/02/08 05:01:26;;;;;;;23.75;11.77;;;6.00;99.90;;;;;;5014286;28;20052;-60
2024/02/08 05:03:53;;;;;;;24.92;10.55;;;6.00;99.90;;;;;;5014343;28;20134;-61
2024/02/08 05:06:21;;;;;;;24.92;10.40;;;6.00;99.90;;;;;;5013934;28;20061;-61
2024/02/08 05:08:48;;;;;;;18.67;11.68;;;6.00;99.90;;;;;;5014568;28;20419;-60
2024/02/08 05:11:15;;;;;;;24.23;11.63;;;6.00;99.90;;;;;;5014342;28;20034;-60
2024/02/08 05:13:42;;;;;;;21.33;12.00;;;5.90;99.90;;;;;;5014437;28;20045;-58
2024/02/08 05:16:15;;;;;;;23.38;12.13;;;5.90;99.90;;;;;;5014621;28;20057;-60
2024/02/08 05:18:42;;;;;;;24.88;12.50;;;5.90;99.90;;;;;;5014310;28;20056;-60
2024/02/08 05:21:09;;;;;;;26.80;12.93;;;5.90;99.90;;;;;;4997373;28;20480;-60
2024/02/08 05:23:38;;;;;;;25.20;13.40;;;5.90;99.90;;;;;;5014600;28;20117;-60
2024/02/08 05:26:09;;;;;;;26.88;13.50;;;5.90;99.90;;;;;;5014302;28;20042;-60
2024/02/08 05:28:36;;;;;;;28.17;14.35;;;5.80;99.90;;;;;;5014038;28;20048;-60
2024/02/08 05:31:03;;;;;;;27.40;13.73;;;5.80;99.90;;;;;;5014361;28;20088;-60
2024/02/08 05:33:30;;;;;;;24.48;13.40;;;5.70;99.90;;;;;;5013952;28;20540;-60
2024/02/08 05:35:57;;;;;;;24.05;14.63;;;5.80;99.90;;;;;;5014089;28;20048;-60
2024/02/08 05:38:24;;;;;;;30.75;15.80;;;5.70;99.90;;;;;;5014056;28;20046;-60
2024/02/08 05:40:54;;;;;;;29.33;15.68;;;5.70;99.90;;;;;;5013611;28;20045;-61
2024/02/08 05:43:27;;;;;;;21.95;15.38;;;5.70;99.90;;;;;;5013807;28;20394;-60
2024/02/08 05:45:54;;;;;;;26.98;15.50;;;5.70;99.90;;;;;;5013324;28;20046;-61
2024/02/08 05:48:23;;;;;;;28.77;16.00;;;5.70;99.90;;;;;;5013924;28;20048;-61
2024/02/08 05:50:56;;;;;;;25.02;15.35;;;5.70;99.90;;;;;;5013839;28;20049;-61
2024/02/08 05:53:24;;;;;;;26.10;15.27;;;5.70;99.90;;;;;;5013935;28;20046;-61
2024/02/08 05:55:52;;;;;;;20.38;15.27;;;5.70;99.90;;;;;;5013776;28;20042;-61
2024/02/08 05:58:19;;;;;;;26.55;16.05;;;5.70;99.90;;;;;;5013575;28;20073;-61
2024/02/08 06:00:52;;;;;;;24.95;15.70;;;5.70;99.90;;;;;;5012509;28;20434;-61
2024/02/08 06:03:27;;;;;;;22.17;14.88;;;5.70;99.90;;;;;;5013695;28;20038;-61
2024/02/08 06:06:06;;;;;;;21.27;14.55;;;5.70;99.90;;;;;;5013580;28;20041;-61
2024/02/08 06:08:39;;;;;;;23.08;14.88;;;5.80;99.90;;;;;;5013869;28;20125;-61
2024/02/08 06:11:08;;;;;;;20.67;14.40;;;5.80;99.90;;;;;;5014671;28;20072;-61
2024/02/08 06:13:41;;;;;;;18.95;13.10;;;5.80;99.90;;;;;;5017370;28;20042;-61
2024/02/08 06:16:14;;;;;;;21.50;13.55;;;5.80;99.90;;;;;;5016238;28;20058;-61
2024/02/08 06:18:45;;;;;;;16.90;12.23;;;5.80;99.90;;;;;;5017740;28;20077;-62
2024/02/08 06:21:18;;;;;;;16.10;11.85;;;5.80;99.90;;;;;;5017699;28;20041;-62
2024/02/08 06:23:45;;;;;;;15.57;11.65;;;5.80;99.90;;;;;;5017209;28;20034;-61
2024/02/08 06:28:41;;;;;;;15.85;10.88;;;5.80;99.90;;;;;;5017339;28;20038;-62
2024/02/08 06:31:10;;;;;;;11.68;9.13;;;5.80;99.90;;;;;;5017582;28;20053;-60
2024/02/08 06:34:09;;;;;;;11.38;8.25;;;5.80;99.90;;;;;;5017043;28;20050;-60
2024/02/08 06:36:33;;;;;;;12.05;9.20;;;5.80;99.90;;;;;;5016664;28;20056;-61
2024/02/08 06:39:20;;;;;;;11.85;8.55;;;5.90;99.90;;;;;;5017101;28;20065;-61
2024/02/08 06:41:53;;;;;;;9.20;7.38;;;5.90;99.90;;;;;;5017077;28;20041;-59
2024/02/08 06:47:18;;;;;;;9.93;7.70;;;5.90;99.90;;;;;;5017149;28;20036;-60
2024/02/08 07:37:18;;;;;;;8.50;7.00;;;5.80;99.90;;;;;;5016021;28;20050;-62
2024/02/08 07:39:53;;;;;;;9.45;6.88;;;5.80;99.90;;;;;;5015773;28;20056;-62
2024/02/08 07:42:29;;;;;;;;;;;5.80;99.90;;;;;;5016530;28;20384;-62
2024/02/08 07:44:57;;;;;;;9.05;6.78;;;5.80;99.90;;;;;;5015632;28;19921;-62
2024/02/08 07:47:27;;;;;;;8.45;6.70;;;5.90;99.90;;;;;;5015938;28;20046;-62
2024/02/08 07:50:09;;;;;;;8.38;7.18;;;5.90;99.90;;;;;;5014498;28;20034;-61
2024/02/08 07:52:46;;;;;;;11.32;7.35;;;5.90;99.90;;;;;;5015620;28;20049;-62
2024/02/08 07:55:58;;;;;;;9.43;6.90;;;5.90;99.90;;;;;;5015323;28;20505;-61
2024/02/08 07:58:08;;;;;;;7.72;6.55;;;5.90;99.90;;;;;;5017465;28;20052;-62
2024/02/08 08:03:08;;;;;;;7.78;6.78;;;5.90;99.90;;;;;;5015781;28;20494;-62
2024/02/08 08:05:41;;;;;;;8.25;6.60;;;5.90;99.90;;;;;;5014954;28;20046;-62
2024/02/08 08:08:15;;;;;;;7.80;6.45;;;5.90;99.90;;;;;;5015451;28;20042;-62
2024/02/08 08:10:42;;;;;;;7.45;6.03;;;5.90;99.90;;;;;;5015404;28;20074;-62
2024/02/08 08:13:08;;;;;;;8.85;6.60;;;5.90;99.90;;;;;;5015136;28;20069;-62
2024/02/08 08:15:49;;;;;;;10.60;6.15;;;5.90;99.90;;;;;;5014965;28;20054;-62
2024/02/08 08:18:29;;;;;;;8.55;6.60;;;5.90;99.90;;;;;;5015048;28;20049;-61
2024/02/08 08:20:57;;;;;;;6.47;5.78;;;5.90;99.90;;;;;;5015432;28;20483;-62
2024/02/08 08:23:27;;;;;;;8.50;6.47;;;5.90;99.90;;;;;;5014903;28;20407;-61
2024/02/08 08:28:53;;;;;;;7.60;6.45;;;5.90;99.90;;;;;;5024175;28;20091;-60
2024/02/08 08:31:35;;;;;;;7.53;6.30;;;5.90;99.90;;;;;;5014810;28;20046;-61
2024/02/08 08:36:58;;;;;;;;;;;5.80;99.90;;;;;;5014949;28;20046;-60
2024/02/08 08:42:17;;;;;;;6.93;6.00;;;5.90;99.90;;;;;;5014628;28;20119;-60
2024/02/08 08:44:59;;;;;;;8.38;6.80;;;5.90;99.90;;;;;;5014280;28;20038;-60
2024/02/08 08:47:28;;;;;;;7.50;6.40;;;5.90;99.90;;;;;;5014368;28;20560;-61
2024/02/08 08:49:55;;;;;;;8.60;6.10;;;5.90;99.90;;;;;;5013180;28;20038;-61
2024/02/08 08:52:25;;;;;;;8.57;6.57;;;5.90;99.90;;;;;;5014424;28;20034;-61
2024/02/08 08:55:10;;;;;;;9.77;6.45;;;5.90;99.90;;;;;;5014367;28;20050;-61
2024/02/08 08:57:38;;;;;;;7.50;6.28;;;5.90;99.90;;;;;;5014722;28;20041;-60
2024/02/08 09:00:09;;;;;;;7.97;6.50;;;5.90;99.90;;;;;;5014267;28;20130;-60
2024/02/08 09:02:42;;;;;;;7.75;5.93;;;5.90;99.90;;;;;;5014081;28;20050;-60
2024/02/08 09:05:17;;;;;;;6.72;5.30;;;6.00;99.90;;;;;;5013854;28;20046;-60
2024/02/08 09:07:45;;;;;;;;;;;6.00;99.90;;;;;;5014783;28;20033;-60
2024/02/08 09:10:14;;;;;;;6.60;4.82;;;6.00;99.90;;;;;;5013627;28;20024;-60
2024/02/08 09:12:58;;;;;;;5.47;4.85;;;6.00;99.90;;;;;;5014321;28;20152;-62
2024/02/08 09:15:29;;;;;;;5.72;4.88;;;6.00;99.90;;;;;;5014622;28;20507;-60
2024/02/08 09:18:07;;;;;;;6.57;4.38;;;6.00;99.90;;;;;;5014791;28;20037;-59
2024/02/08 09:20:41;;;;;;;6.10;4.80;;;6.00;99.90;;;;;;5015413;28;20077;-60
2024/02/08 09:23:15;;;;;;;7.05;4.45;;;6.00;99.90;;;;;;5014853;28;20050;-61
2024/02/08 09:25:46;;;;;;;4.82;4.15;;;6.10;99.90;;;;;;5015255;28;20054;-62
2024/02/08 09:28:35;;;;;;;5.50;4.28;;;6.10;99.90;;;;;;5014022;28;20046;-62
2024/02/08 09:31:12;;;;;;;4.90;4.22;;;6.10;99.90;;;;;;5014641;28;20038;-62
2024/02/08 09:34:00;;;;;;;4.97;3.97;;;6.10;99.90;;;;;;5014617;28;20399;-63
2024/02/08 09:36:30;;;;;;;4.75;4.00;;;6.10;99.90;;;;;;5014707;28;20034;-61
2024/02/08 09:38:57;;;;;;;5.10;3.85;;;6.10;99.90;;;;;;5014302;28;20110;-60
2024/02/08 09:41:24;;;;;;;4.72;3.90;;;6.10;99.90;;;;;;5014477;28;20055;-61
2024/02/08 09:43:59;;;;;;;4.93;4.18;;;6.10;99.90;;;;;;5014360;28;20038;-61
2024/02/08 09:49:00;;;;;;;6.10;4.90;;;6.20;99.90;;;;;;5014409;28;20104;-61
2024/02/08 09:51:27;;;;;;;5.95;4.22;;;6.20;99.90;;;;;;5014265;28;20425;-63
2024/02/08 09:54:14;;;;;;;5.10;3.85;;;6.20;99.90;;;;;;5014381;28;20042;-61
2024/02/08 09:56:49;;;;;;;;;;;6.20;99.90;;;;;;5014797;28;20113;-62
2024/02/08 09:59:33;;;;;;;4.88;3.30;;;6.30;99.90;;;;;;5014307;28;19921;-62
2024/02/08 10:02:04;;;;;;;5.80;3.80;;;6.30;99.90;;;;;;4996955;28;20041;-61
2024/02/08 10:04:32;;;;;;;4.10;3.45;;;6.30;99.90;;;;;;5014257;28;20065;-63
2024/02/08 10:07:05;;;;;;;5.00;4.07;;;6.30;99.90;;;;;;5014433;28;20449;-61
2024/02/08 10:09:46;;;;;;;4.05;3.40;;;6.40;99.90;;;;;;5014278;28;20038;-62
2024/02/08 10:12:28;;;;;;;4.10;3.38;;;6.40;99.90;;;;;;5014530;28;20538;-62
2024/02/08 10:14:56;;;;;;;4.80;3.90;;;6.40;99.90;;;;;;5014421;28;20050;-60
2024/02/08 10:17:28;;;;;;;5.85;3.47;;;6.50;99.90;;;;;;5014127;28;20106;-61
2024/02/08 10:20:32;;;;;;;4.32;3.47;;;6.50;99.90;;;;;;5013786;28;20137;-60
2024/02/08 10:22:56;;;;;;;4.47;3.45;;;6.50;99.90;;;;;;5013964;28;20077;-60
2024/02/08 10:28:10;;;;;;;4.25;3.38;;;6.60;99.90;;;;;;5014552;28;20038;-60
2024/02/08 10:30:37;;;;;;;3.80;3.20;;;6.60;99.90;;;;;;5013627;28;20049;-62
2024/02/08 10:33:10;;;;;;;4.28;3.30;;;6.60;99.90;;;;;;5014770;28;20049;-62
2024/02/08 10:35:40;;;;;;;3.95;3.28;;;6.70;99.90;;;;;;5013868;28;20048;-61
2024/02/08 10:38:07;;;;;;;3.47;3.00;;;6.70;99.90;;;;;;5014660;28;20125;-61
2024/02/08 10:40:34;;;;;;;5.20;3.15;;;6.70;99.90;;;;;;5013565;28;20038;-60
2024/02/08 10:43:02;;;;;;;4.18;3.22;;;6.70;99.90;;;;;;5013685;28;20050;-60
2024/02/08 10:45:43;;;;;;;4.95;2.95;;;6.70;99.90;;;;;;5013424;28;20038;-61
2024/02/08 10:48:13;;;;;;;4.18;2.75;;;6.70;99.90;;;;;;5013354;28;20443;-62
2024/02/08 10:50:42;;;;;;;4.05;3.13;;;6.70;99.90;;;;;;5012399;28;20049;-62
2024/02/08 10:53:16;;;;;;;3.80;2.80;;;6.70;99.90;;;;;;5013480;28;20057;-62
2024/02/08 10:55:52;;;;;;;4.68;3.70;;;6.80;99.90;;;;;;5013508;28;20542;-62
2024/02/08 10:58:28;;;;;;;4.90;3.67;;;6.80;99.90;;;;;;5016606;28;20092;-62
2024/02/08 11:03:59;;;;;;;4.13;3.40;;;6.70;99.90;;;;;;5026690;28;20076;-60
2024/02/08 11:06:29;;;;;;;4.70;4.03;;;6.70;99.90;;;;;;5016887;28;20048;-61
2024/02/08 11:09:14;;;;;;;4.07;3.33;;;6.70;99.90;;;;;;5016063;28;20372;-62
2024/02/08 11:11:44;;;;;;;4.60;3.35;;;6.70;99.90;;;;;;5017189;28;20073;-61
2024/02/08 11:14:12;;;;;;;4.22;3.30;;;6.70;99.90;;;;;;5016485;28;20038;-60
2024/02/08 11:16:41;;;;;;;4.82;3.47;;;6.80;99.90;;;;;;5015873;28;20117;-61
2024/02/08 11:19:09;;;;;;;3.70;3.05;;;6.80;99.90;;;;;;5017372;28;20085;-61
2024/02/08 11:21:43;;;;;;;5.68;3.85;;;6.80;99.90;;;;;;5016916;28;20137;-61
2024/02/08 11:24:13;;;;;;;4.47;3.42;;;6.80;99.90;;;;;;5015344;28;20054;-61
2024/02/08 11:26:41;;;;;;;4.68;3.17;;;6.90;99.90;;;;;;5016967;28;20034;-60
2024/02/08 11:29:20;;;;;;;3.85;3.40;;;6.90;99.90;;;;;;5017055;28;20092;-61
2024/02/08 11:31:47;;;;;;;5.40;3.70;;;7.00;99.90;;;;;;5016704;28;20122;-61
2024/02/08 11:34:14;;;;;;;3.88;3.25;;;7.00;99.90;;;;;;5016183;28;20131;-60
2024/02/08 11:36:52;;;;;;;6.50;3.35;;;7.00;99.90;;;;;;5014891;28;20042;-60
2024/02/08 11:39:30;;;;;;;4.65;4.00;;;7.00;99.90;;;;;;5016676;28;20124;-60
2024/02/08 11:41:57;;;;;;;3.60;2.78;;;7.00;99.90;;;;;;5016068;28;20048;-62
2024/02/08 11:44:25;;;;;;;3.90;3.30;;;7.10;99.90;;;;;;5016148;28;20038;-61
2024/02/08 11:46:58;;;;;;;4.13;3.33;;;7.10;99.90;;;;;;5016380;28;20050;-63
2024/02/08 11:49:32;;;;;;;4.28;3.33;;;7.10;99.90;;;;;;4999146;28;20042;-62
2024/02/08 11:52:06;;;;;;;3.67;3.10;;;7.10;99.90;;;;;;5016604;28;20132;-62
2024/02/08 11:54:37;;;;;;;3.55;2.90;;;7.10;99.90;;;;;;5016133;28;20042;-60
2024/02/08 11:57:05;;;;;;;4.20;2.97;;;7.20;99.90;;;;;;5016173;28;20048;-60
2024/02/08 11:59:38;;;;;;;4.82;3.38;;;7.30;99.90;;;;;;5016023;28;20052;-60
2024/02/08 12:02:08;;;;;;;4.30;3.28;;;7.40;99.90;;;;;;5015818;28;20042;-60
2024/02/08 12:04:36;;;;;;;4.13;3.42;;;7.40;99.90;;;;;;5014511;28;20390;-60
2024/02/08 12:07:04;;;;;;;4.30;3.20;;;7.50;99.90;;;;;;5015778;28;20052;-62
2024/02/08 12:09:31;;;;;;;4.72;3.20;;;7.60;99.90;;;;;;5014465;28;20045;-62
2024/02/08 12:11:58;;;;;;;5.53;3.20;;;7.60;99.90;;;;;;5015412;28;20042;-62
2024/02/08 12:14:26;;;;;;;4.00;3.13;;;7.70;99.90;;;;;;5014892;28;20050;-60
2024/02/08 12:16:59;;;;;;;5.80;3.50;;;7.80;99.90;;;;;;5015334;28;20442;-59
2024/02/08 12:19:27;;;;;;;4.63;3.20;;;7.90;99.90;;;;;;5014193;28;20128;-61
2024/02/08 12:21:56;;;;;;;21.10;3.95;;;8.00;99.90;;;;;;5014721;28;20063;-61
2024/02/08 12:24:23;;;;;;;9.80;3.45;;;8.10;99.90;;;;;;5014515;28;20443;-61
2024/02/08 12:26:53;;;;;;;4.78;3.40;;;8.20;99.90;;;;;;5013768;28;20041;-61
2024/02/08 12:29:24;;;;;;;5.30;3.15;;;8.20;99.90;;;;;;5014932;28;20057;-61
2024/02/08 12:31:54;;;;;;;3.92;2.65;;;8.30;99.90;;;;;;5013834;28;20065;-61
2024/02/08 12:34:24;;;;;;;4.28;3.10;;;8.40;99.90;;;;;;5014858;28;20072;-61
2024/02/08 12:36:51;;;;;;;4.68;3.20;;;8.50;99.90;;;;;;5014950;28;20065;-61
2024/02/08 12:39:18;;;;;;;4.43;3.40;;;8.60;99.90;;;;;;5014724;28;20112;-60
2024/02/08 12:41:45;;;;;;;4.32;2.92;;;8.60;99.90;;;;;;5014665;28;20464;-61
2024/02/08 12:44:12;;;;;;;4.20;3.15;;;8.70;99.90;;;;;;5014901;28;20038;-60
2024/02/08 12:46:49;;;;;;;5.32;3.28;;;8.70;99.90;;;;;;5014857;28;20092;-61
2024/02/08 12:49:17;;;;;;;4.35;2.60;;;8.80;99.90;;;;;;5014764;28;20080;-61
2024/02/08 12:51:46;;;;;;;6.50;2.67;;;8.90;99.90;;;;;;5014472;28;20450;-60
2024/02/08 12:54:14;;;;;;;3.90;2.38;;;9.00;99.90;;;;;;5014428;28;20042;-62
2024/02/08 12:56:40;;;;;;;3.97;1.10;;;9.20;99.90;;;;;;5014413;28;20037;-62
2024/02/08 12:59:08;;;;;;;2.80;0.90;;;9.60;99.90;;;;;;5015318;28;20053;-60
2024/02/08 13:01:38;;;;;;;1.50;0.73;;;9.90;99.90;;;;;;5014630;28;20045;-60
2024/02/08 13:04:06;;;;;;;1.80;0.77;;;10.20;99.90;;;;;;5015119;28;20042;-61
2024/02/08 13:06:34;;;;;;;2.00;0.80;;;10.50;99.90;;;;;;5014857;28;20042;-61
2024/02/08 13:09:01;;;;;;;3.00;0.85;;;10.70;99.90;;;;;;5013751;28;20108;-62
2024/02/08 13:11:28;;;;;;;1.58;0.60;;;10.80;99.90;;;;;;5014652;28;20450;-62
2024/02/08 13:13:55;;;;;;;1.15;0.55;;;10.90;99.90;;;;;;5013533;28;20042;-62
2024/02/08 13:16:22;;;;;;;1.55;0.50;;;11.00;99.90;;;;;;5014839;28;20044;-63
2024/02/08 13:18:49;;;;;;;3.47;0.60;;;11.20;99.90;;;;;;5014439;28;20111;-63
2024/02/08 13:21:17;;;;;;;2.22;0.50;;;11.30;99.90;;;;;;5014512;28;20041;-61
2024/02/08 13:23:46;;;;;;;3.28;0.90;;;11.40;99.90;;;;;;5014261;28;20049;-61
2024/02/08 13:26:17;;;;;;;2.40;0.50;;;11.40;99.90;;;;;;5013811;28;20038;-61
2024/02/08 13:28:59;;;;;;;1.17;0.40;;;11.50;99.90;;;;;;5014077;28;20037;-61
2024/02/08 13:31:28;;;;;;;2.17;0.50;;;11.50;99.90;;;;;;5013913;28;20038;-61
2024/02/08 13:33:56;;;;;;;2.42;0.60;;;11.60;99.90;;;;;;5013891;28;20046;-60
2024/02/08 13:36:25;;;;;;;3.60;0.70;;;11.60;99.90;;;;;;5013815;28;20053;-62
2024/02/08 13:38:52;;;;;;;1.33;0.43;;;11.70;99.90;;;;;;5013789;28;20104;-62
2024/02/08 13:41:19;;;;;;;1.95;0.60;;;11.70;99.90;;;;;;5013811;28;20096;-61
2024/02/08 13:43:48;;;;;;;2.45;0.70;;;11.80;99.90;;;;;;5013733;28;20104;-62
2024/02/08 13:46:15;;;;;;;2.08;0.60;;;11.80;99.90;;;;;;5013713;28;20034;-62
2024/02/08 13:48:43;;;;;;;2.08;0.63;;;11.90;99.90;;;;;;5013905;28;20042;-66
2024/02/08 13:51:10;;;;;;;1.88;0.65;;;12.00;99.90;;;;;;5013768;28;20125;-63
2024/02/08 13:53:37;;;;;;;2.03;0.60;;;12.00;99.90;;;;;;5013622;28;20042;-62
2024/02/08 13:56:05;;;;;;;3.20;0.60;;;12.00;99.90;;;;;;5013501;28;20069;-63
2024/02/08 13:58:36;;;;;;;1.75;0.60;;;12.00;99.90;;;;;;5013587;28;20053;-62
2024/02/08 14:01:03;;;;;;;1.88;0.40;;;12.10;99.90;;;;;;5013886;28;20065;-63
2024/02/08 14:03:30;;;;;;;1.98;0.50;;;12.10;99.90;;;;;;5013713;28;20045;-61
2024/02/08 14:06:00;;;;;;;1.90;0.50;;;12.10;99.90;;;;;;5013269;28;20034;-61
2024/02/08 14:08:29;;;;;;;1.58;0.50;;;12.10;99.90;;;;;;5012157;28;20068;-61
2024/02/08 14:10:56;;;;;;;1.98;0.60;;;12.10;99.90;;;;;;5012358;28;20402;-61
2024/02/08 14:13:29;;;;;;;2.38;0.60;;;12.10;99.90;;;;;;5013615;28;20125;-61
2024/02/08 14:16:00;;;;;;;5.43;0.73;;;12.10;99.90;;;;;;5012972;28;20053;-61
2024/02/08 14:18:31;;;;;;;5.35;0.95;;;12.10;99.90;;;;;;5012344;28;20307;-63
2024/02/08 14:21:01;;;;;;;4.10;0.80;;;12.10;99.90;;;;;;5013423;28;20034;-63
2024/02/08 14:23:31;;;;;;;3.50;0.65;;;12.00;99.90;;;;;;5013585;28;20050;-63
2024/02/08 14:28:33;;;;;;;7.28;2.10;;;12.00;99.90;;;;;;5013229;28;20108;-63
2024/02/08 14:31:00;;;;;;;3.95;1.10;;;12.00;99.90;;;;;;5013127;28;20196;-62
2024/02/08 14:33:27;;;;;;;3.70;1.02;;;12.00;99.90;;;;;;5016352;28;20112;-61
2024/02/08 14:35:54;;;;;;;5.22;1.13;;;12.00;99.90;;;;;;5017108;28;20057;-61
2024/02/08 14:38:21;;;;;;;4.47;0.77;;;12.00;99.90;;;;;;5017069;28;20126;-61
2024/02/08 14:40:47;;;;;;;3.30;1.00;;;12.00;99.90;;;;;;5017288;28;20042;-61
2024/02/08 14:43:25;;;;;;;6.32;1.40;;;11.90;99.90;;;;;;5017056;28;20528;-61
2024/02/08 14:45:53;;;;;;;4.55;1.30;;;12.00;99.90;;;;;;5016673;28;20129;-62
2024/02/08 14:48:22;;;;;;;3.75;0.93;;;12.00;99.90;;;;;;5016669;28;20138;-62
2024/02/08 14:50:51;;;;;;;5.05;1.05;;;12.00;99.90;;;;;;5016981;28;20053;-62
2024/02/08 14:53:18;;;;;;;3.15;1.00;;;12.00;99.90;;;;;;5017024;28;20407;-62
2024/02/08 14:55:45;;;;;;;5.45;0.88;;;12.00;99.90;;;;;;5015623;28;20083;-62
2024/02/08 15:01:07;;;;;;;;;;;12.00;99.90;;;;;;5016841;28;20065;-62
2024/02/08 15:03:38;;;;;;;3.05;1.10;;;12.00;99.90;;;;;;5016613;28;19921;-61